createdAt,value
2023-01-30T00:01:40.336Z,21.60
2023-01-30T00:04:07.056Z,22.27
2023-01-30T00:06:34.047Z,24.40
2023-01-30T00:09:00.809Z,25.17
2023-01-30T00:11:30.120Z,27.85
2023-01-30T00:13:57.138Z,26.23
2023-01-30T00:16:23.947Z,28.10
2023-01-30T00:18:51.006Z,27.35
2023-01-30T00:21:17.763Z,27.02
2023-01-30T00:23:44.603Z,26.70
2023-01-30T00:26:12.017Z,26.13
2023-01-30T00:28:39.732Z,24.83
2023-01-30T00:31:06.910Z,27.10
2023-01-30T00:33:33.608Z,29.80
2023-01-30T00:36:01.721Z,24.80
2023-01-30T00:38:28.383Z,25.27
2023-01-30T00:40:55.260Z,27.88
2023-01-30T00:43:40.645Z,29.85
2023-01-30T00:46:41.931Z,26.70
2023-01-30T00:49:08.638Z,26.65
2023-01-30T00:51:35.280Z,28.88
2023-01-30T00:54:02.043Z,26.85
2023-01-30T00:56:28.743Z,27.60
2023-01-30T00:58:55.406Z,26.40
2023-01-30T01:01:22.073Z,26.17
2023-01-30T01:03:48.723Z,26.55
2023-01-30T01:06:15.401Z,29.65
2023-01-30T01:08:42.135Z,26.52
2023-01-30T01:11:08.800Z,25.90
2023-01-30T01:13:35.672Z,26.73
2023-01-30T01:16:02.496Z,23.50
2023-01-30T01:18:29.303Z,25.42
2023-01-30T01:20:56.025Z,25.05
2023-01-30T01:23:22.838Z,23.80
2023-01-30T01:25:49.461Z,21.83
2023-01-30T01:28:18.486Z,22.67
2023-01-30T01:30:45.133Z,26.70
2023-01-30T01:33:11.819Z,26.52
2023-01-30T01:35:41.589Z,23.75
2023-01-30T01:38:08.405Z,23.08
2023-01-30T01:40:53.474Z,22.67
2023-01-30T01:43:22.607Z,22.48
2023-01-30T01:45:53.852Z,21.95
2023-01-30T01:48:35.541Z,23.77
2023-01-30T01:51:13.519Z,23.45
2023-01-30T01:53:49.795Z,28.35
2023-01-30T01:56:17.040Z,24.80
2023-01-30T01:58:47.987Z,23.27
2023-01-30T02:01:14.662Z,22.33
2023-01-30T02:03:43.182Z,25.27
2023-01-30T02:06:09.896Z,21.33
2023-01-30T02:08:39.102Z,22.85
2023-01-30T02:11:08.902Z,21.40
2023-01-30T02:13:36.016Z,22.10
2023-01-30T02:16:04.103Z,20.67
2023-01-30T02:18:31.426Z,22.58
2023-01-30T02:21:04.737Z,21.95
2023-01-30T02:23:45.037Z,24.40
2023-01-30T02:26:36.176Z,23.02
2023-01-30T02:29:09.212Z,19.77
2023-01-30T02:31:38.543Z,20.33
2023-01-30T02:34:11.941Z,22.77
2023-01-30T02:36:53.922Z,23.40
2023-01-30T02:39:47.981Z,25.23
2023-01-30T02:42:20.793Z,23.33
2023-01-30T02:45:24.429Z,24.98
2023-01-30T02:48:00.098Z,23.50
2023-01-30T02:50:33.410Z,23.92
2023-01-30T02:53:00.104Z,21.92
2023-01-30T02:55:28.583Z,22.02
2023-01-30T02:57:56.068Z,25.05
2023-01-30T03:00:47.176Z,26.42
2023-01-30T03:03:37.309Z,22.80
2023-01-30T03:06:22.607Z,20.60
2023-01-30T03:09:18.916Z,22.67
2023-01-30T03:11:51.870Z,24.77
2023-01-30T03:14:23.851Z,21.58
2023-01-30T03:16:50.970Z,22.08
2023-01-30T03:19:18.080Z,30.88
2023-01-30T03:21:45.237Z,23.52
2023-01-30T03:24:12.987Z,21.77
2023-01-30T03:26:43.611Z,23.23
2023-01-30T03:29:10.372Z,19.50
2023-01-30T03:31:37.134Z,20.92
2023-01-30T03:34:04.057Z,21.73
2023-01-30T03:36:30.782Z,21.27
2023-01-30T03:38:57.661Z,19.27
2023-01-30T03:41:24.333Z,19.08
2023-01-30T03:43:51.010Z,21.42
2023-01-30T03:46:17.676Z,20.38
2023-01-30T03:48:44.397Z,20.13
2023-01-30T03:51:11.100Z,17.98
2023-01-30T03:53:37.874Z,16.20
2023-01-30T03:56:04.793Z,18.88
2023-01-30T03:58:31.525Z,14.75
2023-01-30T04:00:58.210Z,18.05
2023-01-30T04:03:24.938Z,18.02
2023-01-30T04:05:51.593Z,16.75
2023-01-30T04:08:18.344Z,15.05
2023-01-30T04:10:45.005Z,15.10
2023-01-30T04:13:11.705Z,16.00
2023-01-30T04:15:38.361Z,15.73
2023-01-30T04:18:05.188Z,16.30
2023-01-30T04:20:31.880Z,16.75
2023-01-30T04:22:58.534Z,14.35
2023-01-30T04:25:31.287Z,16.30
2023-01-30T04:27:58.096Z,16.73
2023-01-30T04:30:24.819Z,14.25
2023-01-30T04:32:51.681Z,14.07
2023-01-30T04:35:18.698Z,13.45
2023-01-30T04:37:45.583Z,14.95
2023-01-30T04:40:12.588Z,14.48
2023-01-30T04:42:39.304Z,15.18
2023-01-30T04:45:06.847Z,13.23
2023-01-30T04:47:33.681Z,11.45
2023-01-30T04:50:00.441Z,12.18
2023-01-30T04:52:27.133Z,16.35
2023-01-30T04:54:57.098Z,12.82
2023-01-30T04:57:23.839Z,13.57
2023-01-30T04:59:50.465Z,12.43
2023-01-30T05:02:17.247Z,12.45
2023-01-30T05:04:44.028Z,12.07
2023-01-30T05:07:11.917Z,12.32
2023-01-30T05:09:38.665Z,12.27
2023-01-30T05:12:05.438Z,11.80
2023-01-30T05:14:32.091Z,11.57
2023-01-30T05:16:58.775Z,12.30
2023-01-30T05:19:25.713Z,13.48
2023-01-30T05:21:52.533Z,12.55
2023-01-30T05:24:19.234Z,11.95
2023-01-30T05:26:45.885Z,10.27
2023-01-30T05:29:12.611Z,12.88
2023-01-30T05:31:39.311Z,13.25
2023-01-30T05:34:06.030Z,9.88
2023-01-30T05:36:32.706Z,11.88
2023-01-30T05:38:59.445Z,12.60
2023-01-30T05:41:26.133Z,10.80
2023-01-30T05:43:53.002Z,11.27
2023-01-30T05:46:20.000Z,10.35
2023-01-30T05:48:46.731Z,9.95
2023-01-30T05:51:18.560Z,10.35
2023-01-30T05:53:45.425Z,11.05
2023-01-30T05:56:12.079Z,10.20
2023-01-30T05:58:38.811Z,12.70
2023-01-30T06:01:08.638Z,11.63
2023-01-30T06:03:35.645Z,11.07
2023-01-30T06:06:03.239Z,12.82
2023-01-30T06:08:30.026Z,13.38
2023-01-30T06:11:01.485Z,11.98
2023-01-30T06:13:28.257Z,12.18
2023-01-30T06:15:54.980Z,12.88
2023-01-30T06:18:21.816Z,10.82
2023-01-30T06:20:49.817Z,11.02
2023-01-30T06:23:17.009Z,11.57
2023-01-30T06:25:45.040Z,10.63
2023-01-30T06:28:12.366Z,13.43
2023-01-30T06:30:39.329Z,11.20
2023-01-30T06:33:06.382Z,9.52
2023-01-30T06:35:33.383Z,11.27
2023-01-30T06:38:00.110Z,11.45
2023-01-30T06:40:26.772Z,12.00
2023-01-30T06:42:53.397Z,11.95
2023-01-30T06:45:20.482Z,12.02
2023-01-30T06:47:51.950Z,10.63
2023-01-30T06:50:20.253Z,10.50
2023-01-30T06:52:48.022Z,12.07
2023-01-30T06:55:22.206Z,11.63
2023-01-30T06:57:49.332Z,10.55
2023-01-30T07:00:18.405Z,11.68
2023-01-30T07:02:45.625Z,10.57
2023-01-30T07:05:12.826Z,12.88
2023-01-30T07:07:39.741Z,10.57
2023-01-30T07:10:09.090Z,11.07
2023-01-30T07:12:36.963Z,13.30
2023-01-30T07:15:05.491Z,10.88
2023-01-30T07:17:32.518Z,10.50
2023-01-30T07:19:59.276Z,10.73
2023-01-30T07:22:26.239Z,11.52
2023-01-30T07:24:52.969Z,13.63
2023-01-30T07:27:19.843Z,10.40
2023-01-30T07:29:46.680Z,10.85
2023-01-30T07:32:19.324Z,10.25
2023-01-30T07:34:49.137Z,13.18
2023-01-30T07:37:15.906Z,10.15
2023-01-30T07:39:42.648Z,12.30
2023-01-30T07:42:09.364Z,10.48
2023-01-30T07:44:36.061Z,10.15
2023-01-30T07:47:02.827Z,12.20
2023-01-30T07:49:29.623Z,13.60
2023-01-30T07:51:56.375Z,12.73
2023-01-30T07:54:23.243Z,12.27
2023-01-30T07:56:49.925Z,13.30
2023-01-30T07:59:16.660Z,10.65
2023-01-30T08:01:43.439Z,13.40
2023-01-30T08:04:10.134Z,16.35
2023-01-30T08:06:39.351Z,14.45
2023-01-30T08:09:06.803Z,13.32
2023-01-30T08:11:35.609Z,14.13
2023-01-30T08:14:02.741Z,12.98
2023-01-30T08:16:32.275Z,13.38
2023-01-30T08:18:59.372Z,13.50
2023-01-30T08:21:36.370Z,15.77
2023-01-30T08:24:03.168Z,13.68
2023-01-30T08:26:29.900Z,10.50
2023-01-30T08:28:56.698Z,9.13
2023-01-30T08:31:23.460Z,9.43
2023-01-30T08:33:50.170Z,14.50
2023-01-30T08:36:16.986Z,10.88
2023-01-30T08:38:43.780Z,11.70
2023-01-30T08:41:10.573Z,9.40
2023-01-30T08:43:37.553Z,10.40
2023-01-30T08:46:04.606Z,9.48
2023-01-30T08:48:47.531Z,10.93
2023-01-30T08:51:15.687Z,9.07
2023-01-30T08:53:42.397Z,9.93
2023-01-30T08:56:09.258Z,12.27
2023-01-30T08:58:35.974Z,10.52
2023-01-30T09:01:07.171Z,12.55
2023-01-30T09:03:33.992Z,9.15
2023-01-30T09:06:00.660Z,8.73
2023-01-30T09:08:27.372Z,8.70
2023-01-30T09:11:00.843Z,9.05
2023-01-30T09:13:28.116Z,8.70
2023-01-30T09:15:54.828Z,8.95
2023-01-30T09:18:21.531Z,7.40
2023-01-30T09:20:48.293Z,8.98
2023-01-30T09:23:15.124Z,9.27
2023-01-30T09:25:41.789Z,9.20
2023-01-30T09:28:08.565Z,16.08
2023-01-30T09:30:35.360Z,8.88
2023-01-30T09:33:02.380Z,21.30
2023-01-30T09:35:29.076Z,21.52
2023-01-30T09:37:55.732Z,9.68
2023-01-30T09:40:28.143Z,8.35
2023-01-30T09:43:07.221Z,9.10
2023-01-30T09:45:36.935Z,7.85
2023-01-30T09:48:08.010Z,7.63
2023-01-30T09:51:00.314Z,7.85
2023-01-30T09:53:56.337Z,9.38
2023-01-30T09:56:23.048Z,9.98
2023-01-30T09:58:55.331Z,9.35
2023-01-30T10:01:59.946Z,8.80
2023-01-30T10:04:59.926Z,8.02
2023-01-30T10:07:40.706Z,9.30
2023-01-30T10:10:11.710Z,7.50
2023-01-30T10:12:56.429Z,7.32
2023-01-30T10:15:34.675Z,10.38
2023-01-30T10:18:43.447Z,8.20
2023-01-30T10:22:02.596Z,6.05
2023-01-30T10:24:41.146Z,4.70
2023-01-30T10:27:13.155Z,5.13
2023-01-30T10:29:41.567Z,3.75
2023-01-30T10:32:26.203Z,4.47
2023-01-30T10:34:54.332Z,5.88
2023-01-30T10:37:33.005Z,4.13
2023-01-30T10:40:20.849Z,3.53
2023-01-30T10:43:09.904Z,3.55
2023-01-30T10:45:57.242Z,3.47
2023-01-30T10:49:05.393Z,5.13
2023-01-30T10:52:02.477Z,5.47
2023-01-30T10:54:40.664Z,2.95
2023-01-30T10:57:22.962Z,4.00
2023-01-30T11:00:04.957Z,3.83
2023-01-30T11:02:53.742Z,4.22
2023-01-30T11:05:25.478Z,6.05
2023-01-30T11:07:52.104Z,2.75
2023-01-30T11:10:21.689Z,4.47
2023-01-30T11:12:49.331Z,4.30
2023-01-30T11:15:16.563Z,3.55
2023-01-30T11:17:45.349Z,2.08
2023-01-30T11:20:20.187Z,2.17
2023-01-30T11:22:52.061Z,2.05
2023-01-30T11:25:24.347Z,2.13
2023-01-30T11:28:01.647Z,5.45
2023-01-30T11:30:36.080Z,5.45
2023-01-30T11:33:17.998Z,4.35
2023-01-30T11:36:02.369Z,2.25
2023-01-30T11:38:35.479Z,2.42
2023-01-30T11:41:11.272Z,2.15
2023-01-30T11:43:42.226Z,1.88
2023-01-30T11:46:09.593Z,2.30
2023-01-30T11:49:06.227Z,2.72
2023-01-30T11:51:27.013Z,2.80
2023-01-30T11:53:59.523Z,2.65
2023-01-30T11:56:40.292Z,2.50
2023-01-30T11:59:32.191Z,3.13
2023-01-30T12:02:05.330Z,3.15
2023-01-30T12:07:19.799Z,6.43
2023-01-30T12:09:46.646Z,3.35
2023-01-30T12:12:46.360Z,4.30
2023-01-30T12:15:32.337Z,3.72
2023-01-30T12:18:01.605Z,3.33
2023-01-30T12:20:57.492Z,4.47
2023-01-30T12:23:46.456Z,4.97
2023-01-30T12:26:27.214Z,5.53
2023-01-30T12:29:17.542Z,4.60
2023-01-30T12:32:05.807Z,5.35
2023-01-30T12:34:32.674Z,6.72
2023-01-30T12:37:05.289Z,5.13
2023-01-30T12:39:50.875Z,6.20
2023-01-30T12:42:39.407Z,5.03
2023-01-30T12:45:48.125Z,4.95
2023-01-30T12:48:44.344Z,4.93
2023-01-30T12:52:07.205Z,6.35
2023-01-30T12:54:42.752Z,5.03
2023-01-30T12:57:15.137Z,6.15
2023-01-30T13:00:04.300Z,6.00
2023-01-30T13:03:04.511Z,5.57
2023-01-30T13:05:49.956Z,10.30
2023-01-30T13:08:34.981Z,5.15
2023-01-30T13:11:20.539Z,6.57
2023-01-30T13:14:15.510Z,6.28
2023-01-30T13:17:00.860Z,8.43
2023-01-30T13:19:53.887Z,8.32
2023-01-30T13:22:39.741Z,4.90
2023-01-30T13:25:12.584Z,5.32
2023-01-30T13:27:39.457Z,5.47
2023-01-30T13:30:09.573Z,6.47
2023-01-30T13:32:44.674Z,4.85
2023-01-30T13:35:38.135Z,4.20
2023-01-30T13:38:04.870Z,2.90
2023-01-30T13:40:38.712Z,3.60
2023-01-30T13:43:22.499Z,4.07
2023-01-30T13:45:50.242Z,2.08
2023-01-30T13:48:23.870Z,4.50
2023-01-30T13:51:27.946Z,2.17
2023-01-30T13:54:09.524Z,2.25
2023-01-30T13:56:46.403Z,2.20
2023-01-30T13:59:35.981Z,1.80
2023-01-30T14:02:10.287Z,2.25
2023-01-30T14:04:47.479Z,3.47
2023-01-30T14:07:22.343Z,1.73
2023-01-30T14:10:25.709Z,2.97
2023-01-30T14:12:53.759Z,2.50
2023-01-30T14:15:29.182Z,4.32
2023-01-30T14:18:02.444Z,4.53
2023-01-30T14:23:05.029Z,5.13
2023-01-30T14:25:36.732Z,3.63
2023-01-30T14:28:07.669Z,2.92
2023-01-30T14:30:53.548Z,4.18
2023-01-30T14:33:23.564Z,4.32
2023-01-30T14:36:02.674Z,2.90
2023-01-30T14:38:30.906Z,2.25
2023-01-30T14:41:00.849Z,3.55
2023-01-30T14:43:42.650Z,2.88
2023-01-30T14:46:32.374Z,3.90
2023-01-30T14:49:05.515Z,2.63
2023-01-30T14:51:42.642Z,3.08
2023-01-30T14:54:13.146Z,4.10
2023-01-30T14:56:55.419Z,4.00
2023-01-30T14:59:22.252Z,4.97
2023-01-30T15:02:21.578Z,8.65
2023-01-30T15:05:11.859Z,7.43
2023-01-30T15:07:41.697Z,6.88
2023-01-30T15:10:39.024Z,6.45
2023-01-30T15:13:31.321Z,5.75
2023-01-30T15:16:07.911Z,3.90
2023-01-30T15:19:12.431Z,4.00
2023-01-30T15:21:42.051Z,4.20
2023-01-30T15:24:46.901Z,4.63
2023-01-30T15:27:22.468Z,4.00
2023-01-30T15:30:04.744Z,5.05
2023-01-30T15:32:32.908Z,5.00
2023-01-30T15:35:16.727Z,4.38
2023-01-30T15:37:46.553Z,4.43
2023-01-30T15:40:22.934Z,4.82
2023-01-30T15:43:21.896Z,6.38
2023-01-30T15:45:51.719Z,4.50
2023-01-30T15:48:41.883Z,4.68
2023-01-30T15:51:11.579Z,4.78
2023-01-30T15:53:42.234Z,6.95
2023-01-30T15:56:11.027Z,7.68
2023-01-30T15:58:40.385Z,5.30
2023-01-30T16:01:07.242Z,6.35
2023-01-30T16:03:36.964Z,6.68
2023-01-30T16:06:03.903Z,7.38
2023-01-30T16:08:32.977Z,6.25
2023-01-30T16:11:00.887Z,5.75
2023-01-30T16:13:28.445Z,10.63
2023-01-30T16:16:05.123Z,5.63
2023-01-30T16:18:36.244Z,5.95
2023-01-30T16:21:06.131Z,5.80
2023-01-30T16:23:37.931Z,6.05
2023-01-30T16:26:07.038Z,7.85
2023-01-30T16:28:34.055Z,5.93
2023-01-30T16:31:05.625Z,10.30
2023-01-30T16:33:38.927Z,6.07
2023-01-30T16:36:07.341Z,7.53
2023-01-30T16:38:38.719Z,8.23
2023-01-30T16:41:05.552Z,7.70
2023-01-30T16:43:33.571Z,6.93
2023-01-30T16:46:34.359Z,8.50
2023-01-30T16:49:04.334Z,7.20
2023-01-30T16:51:31.278Z,7.50
2023-01-30T16:54:04.113Z,8.88
2023-01-30T16:56:33.556Z,4.78
2023-01-30T16:59:01.129Z,6.90
2023-01-30T17:01:39.054Z,6.10
2023-01-30T17:04:07.161Z,5.13
2023-01-30T17:06:35.786Z,7.70
2023-01-30T17:09:06.216Z,5.78
2023-01-30T17:11:38.207Z,6.68
2023-01-30T17:14:23.724Z,12.55
2023-01-30T17:17:04.174Z,10.07
2023-01-30T17:19:31.026Z,6.75
2023-01-30T17:21:58.293Z,16.33
2023-01-30T17:24:25.597Z,12.38
2023-01-30T17:27:10.447Z,10.48
2023-01-30T17:29:44.988Z,5.28
2023-01-30T17:32:15.883Z,6.13
2023-01-30T17:34:42.949Z,8.18
2023-01-30T17:37:21.534Z,6.78
2023-01-30T17:39:48.512Z,4.80
2023-01-30T17:42:18.047Z,7.90
2023-01-30T17:44:44.800Z,7.15
2023-01-30T17:47:12.564Z,8.02
2023-01-30T17:49:39.488Z,6.32
2023-01-30T17:52:07.255Z,9.27
2023-01-30T17:54:34.043Z,8.00
2023-01-30T17:57:02.440Z,7.78
2023-01-30T17:59:29.437Z,6.25
2023-01-30T18:01:56.254Z,5.75
2023-01-30T18:04:23.176Z,7.15
2023-01-30T18:06:53.039Z,11.27
2023-01-30T18:09:23.746Z,7.50
2023-01-30T18:11:50.460Z,6.93
2023-01-30T18:14:17.541Z,6.10
2023-01-30T18:16:44.454Z,9.40
2023-01-30T18:19:17.910Z,8.07
2023-01-30T18:21:45.613Z,5.93
2023-01-30T18:24:13.346Z,8.02
2023-01-30T18:26:40.581Z,7.40
2023-01-30T18:29:09.953Z,6.90
2023-01-30T18:31:37.447Z,10.40
2023-01-30T18:34:04.367Z,7.53
2023-01-30T18:36:33.678Z,6.07
2023-01-30T18:39:00.500Z,7.05
2023-01-30T18:41:27.231Z,8.02
2023-01-30T18:43:58.802Z,11.23
2023-01-30T18:46:26.125Z,7.32
2023-01-30T18:48:52.972Z,9.52
2023-01-30T18:51:21.550Z,6.13
2023-01-30T18:53:50.330Z,7.38
2023-01-30T18:56:18.967Z,8.25
2023-01-30T18:58:45.898Z,7.53
2023-01-30T19:01:16.867Z,10.00
2023-01-30T19:03:43.803Z,9.02
2023-01-30T19:06:11.940Z,7.07
2023-01-30T19:08:38.932Z,9.13
2023-01-30T19:11:28.842Z,8.93
2023-01-30T19:13:56.182Z,8.68
2023-01-30T19:16:25.087Z,9.18
2023-01-30T19:18:53.142Z,8.57
2023-01-30T19:21:20.101Z,8.40
2023-01-30T19:23:47.084Z,9.45
2023-01-30T19:26:13.797Z,9.43
2023-01-30T19:28:41.886Z,12.15
2023-01-30T19:31:09.831Z,6.78
2023-01-30T19:33:36.733Z,8.38
2023-01-30T19:36:17.410Z,10.90
2023-01-30T19:38:44.853Z,7.22
2023-01-30T19:41:19.012Z,8.10
2023-01-30T19:43:45.985Z,8.20
2023-01-30T19:46:13.422Z,8.48
2023-01-30T19:48:40.497Z,7.65
2023-01-30T19:51:13.905Z,8.98
2023-01-30T19:53:41.879Z,8.23
2023-01-30T19:56:09.870Z,7.65
2023-01-30T19:58:37.574Z,7.95
2023-01-30T20:01:08.376Z,8.50
2023-01-30T20:03:36.458Z,8.77
2023-01-30T20:06:07.184Z,7.78
2023-01-30T20:08:35.924Z,8.73
2023-01-30T20:11:12.180Z,9.73
2023-01-30T20:13:40.140Z,11.68
2023-01-30T20:16:11.121Z,9.82
2023-01-30T20:18:38.629Z,10.70
2023-01-30T20:21:07.469Z,10.52
2023-01-30T20:23:34.380Z,10.68
2023-01-30T20:26:06.115Z,10.85
2023-01-30T20:28:33.509Z,10.40
2023-01-30T20:31:00.625Z,15.05
2023-01-30T20:33:29.201Z,8.88
2023-01-30T20:36:01.267Z,12.82
2023-01-30T20:38:32.032Z,10.63
2023-01-30T20:41:06.977Z,8.15
2023-01-30T20:43:34.427Z,8.43
2023-01-30T20:46:15.532Z,8.52
2023-01-30T20:48:42.571Z,10.15
2023-01-30T20:51:14.388Z,11.10
2023-01-30T20:53:46.779Z,9.88
2023-01-30T20:56:13.496Z,9.60
2023-01-30T20:58:40.263Z,8.45
2023-01-30T21:01:18.427Z,8.38
2023-01-30T21:03:48.916Z,7.50
2023-01-30T21:06:42.756Z,10.30
2023-01-30T21:09:03.118Z,8.10
2023-01-30T21:11:29.899Z,12.27
2023-01-30T21:13:56.741Z,10.27
2023-01-30T21:16:28.639Z,7.95
2023-01-30T21:19:00.685Z,8.88
2023-01-30T21:21:35.402Z,9.15
2023-01-30T21:24:05.228Z,9.50
2023-01-30T21:26:34.029Z,10.25
2023-01-30T21:29:01.600Z,8.95
2023-01-30T21:31:29.843Z,10.85
2023-01-30T21:33:58.300Z,8.98
2023-01-30T21:36:25.798Z,9.90
2023-01-30T21:39:11.108Z,8.02
2023-01-30T21:42:05.654Z,8.30
2023-01-30T21:44:34.287Z,12.75
2023-01-30T21:47:01.052Z,10.27
2023-01-30T21:49:28.179Z,8.15
2023-01-30T21:51:55.288Z,9.65
2023-01-30T21:54:22.263Z,11.60
2023-01-30T21:56:49.271Z,8.63
2023-01-30T21:59:16.308Z,9.02
2023-01-30T22:01:43.410Z,8.60
2023-01-30T22:04:13.958Z,9.25
2023-01-30T22:06:41.424Z,8.07
2023-01-30T22:09:08.216Z,9.90
2023-01-30T22:11:36.295Z,10.45
2023-01-30T22:14:03.343Z,7.10
2023-01-30T22:16:30.331Z,10.35
2023-01-30T22:18:59.377Z,9.15
2023-01-30T22:21:28.186Z,9.93
2023-01-30T22:23:55.297Z,9.57
2023-01-30T22:26:23.921Z,8.90
2023-01-30T22:29:00.131Z,7.47
2023-01-30T22:31:30.124Z,8.38
2023-01-30T22:33:57.241Z,7.68
2023-01-30T22:36:28.879Z,9.82
2023-01-30T22:38:55.669Z,6.88
2023-01-30T22:41:24.819Z,8.13
2023-01-30T22:43:56.214Z,7.60
2023-01-30T22:46:25.224Z,11.15
2023-01-30T22:48:52.163Z,12.80
2023-01-30T22:51:23.683Z,7.07
2023-01-30T22:53:52.549Z,6.75
2023-01-30T22:56:21.655Z,7.18
2023-01-30T22:58:48.870Z,9.35
2023-01-30T23:01:29.909Z,10.20
2023-01-30T23:03:58.744Z,8.25
2023-01-30T23:06:25.897Z,9.77
2023-01-30T23:08:53.874Z,9.98
2023-01-30T23:11:29.125Z,8.75
2023-01-30T23:13:57.698Z,8.27
2023-01-30T23:16:26.994Z,6.88
2023-01-30T23:18:57.141Z,12.07
2023-01-30T23:21:31.864Z,10.48
2023-01-30T23:24:08.173Z,8.88
2023-01-30T23:26:38.145Z,10.90
2023-01-30T23:29:09.622Z,10.63
2023-01-30T23:31:36.852Z,9.23
2023-01-30T23:34:05.002Z,12.27
2023-01-30T23:36:31.824Z,10.10
2023-01-30T23:38:59.350Z,10.05
2023-01-30T23:41:30.932Z,9.82
2023-01-30T23:43:58.222Z,10.60
2023-01-30T23:46:33.518Z,9.48
2023-01-30T23:49:06.486Z,9.13
2023-01-30T23:51:34.481Z,11.13
2023-01-30T23:54:01.721Z,12.35
2023-01-30T23:56:29.859Z,7.95
2023-01-30T23:58:56.977Z,10.43
